sensor_id;sensor_type;location;lat;lon;timestamp;pressure;altitude;pressure_sealevel;temperature;humidity
55466;BME280;41329;41.594;23.810;2023-03-13T00:00:10;95337.00;;;6.54;47.48
55466;BME280;41329;41.594;23.810;2023-03-13T00:02:36;95342.50;;;6.54;48.11
55466;BME280;41329;41.594;23.810;2023-03-13T00:05:01;95339.31;;;6.53;48.42
55466;BME280;41329;41.594;23.810;2023-03-13T00:07:27;95340.00;;;6.49;48.18
55466;BME280;41329;41.594;23.810;2023-03-13T00:09:53;95341.16;;;6.48;47.71
55466;BME280;41329;41.594;23.810;2023-03-13T00:12:18;95339.78;;;6.42;47.89
55466;BME280;41329;41.594;23.810;2023-03-13T00:14:44;95339.91;;;6.46;48.23
55466;BME280;41329;41.594;23.810;2023-03-13T00:17:09;95347.81;;;6.47;48.24
55466;BME280;41329;41.594;23.810;2023-03-13T00:19:35;95347.69;;;6.44;48.12
55466;BME280;41329;41.594;23.810;2023-03-13T00:22:00;95344.72;;;6.37;48.23
55466;BME280;41329;41.594;23.810;2023-03-13T00:24:26;95347.22;;;6.42;48.37
55466;BME280;41329;41.594;23.810;2023-03-13T00:26:51;95326.50;;;6.32;48.05
55466;BME280;41329;41.594;23.810;2023-03-13T00:29:16;95341.28;;;6.40;47.78
55466;BME280;41329;41.594;23.810;2023-03-13T00:31:42;95336.59;;;6.40;48.08
55466;BME280;41329;41.594;23.810;2023-03-13T00:34:08;95334.06;;;6.35;47.59
55466;BME280;41329;41.594;23.810;2023-03-13T00:36:34;95349.06;;;6.38;47.43
55466;BME280;41329;41.594;23.810;2023-03-13T00:39:00;95346.56;;;6.33;47.37
55466;BME280;41329;41.594;23.810;2023-03-13T00:41:27;95344.25;;;6.23;47.23
55466;BME280;41329;41.594;23.810;2023-03-13T00:43:53;95351.59;;;6.19;47.42
55466;BME280;41329;41.594;23.810;2023-03-13T00:46:21;95341.50;;;6.11;47.80
55466;BME280;41329;41.594;23.810;2023-03-13T00:48:47;95350.13;;;6.09;48.51
55466;BME280;41329;41.594;23.810;2023-03-13T00:51:14;95352.72;;;6.06;48.35
55466;BME280;41329;41.594;23.810;2023-03-13T00:53:40;95345.06;;;5.99;48.66
55466;BME280;41329;41.594;23.810;2023-03-13T00:56:11;95351.03;;;6.01;48.44
55466;BME280;41329;41.594;23.810;2023-03-13T00:58:38;95351.38;;;6.00;48.75
55466;BME280;41329;41.594;23.810;2023-03-13T01:03:42;95345.63;;;5.93;48.89
55466;BME280;41329;41.594;23.810;2023-03-13T01:06:11;95323.06;;;5.75;48.88
55466;BME280;41329;41.594;23.810;2023-03-13T01:08:37;95352.84;;;5.85;49.33
55466;BME280;41329;41.594;23.810;2023-03-13T01:11:05;95353.50;;;5.82;49.19
55466;BME280;41329;41.594;23.810;2023-03-13T01:13:32;95330.13;;;5.64;48.97
55466;BME280;41329;41.594;23.810;2023-03-13T01:16:07;95341.69;;;5.70;48.55
55466;BME280;41329;41.594;23.810;2023-03-13T01:18:33;95348.53;;;5.64;48.57
55466;BME280;41329;41.594;23.810;2023-03-13T01:20:59;95334.53;;;5.45;48.71
55466;BME280;41329;41.594;23.810;2023-03-13T01:23:25;95354.19;;;5.47;48.91
55466;BME280;41329;41.594;23.810;2023-03-13T01:25:52;95356.56;;;5.36;49.21
55466;BME280;41329;41.594;23.810;2023-03-13T01:28:18;95355.34;;;5.13;49.11
55466;BME280;41329;41.594;23.810;2023-03-13T01:30:43;95358.25;;;4.96;49.48
55466;BME280;41329;41.594;23.810;2023-03-13T01:33:09;95348.16;;;4.88;49.86
55466;BME280;41329;41.594;23.810;2023-03-13T01:35:34;95349.31;;;4.87;50.25
55466;BME280;41329;41.594;23.810;2023-03-13T01:37:59;95354.50;;;4.80;50.52
55466;BME280;41329;41.594;23.810;2023-03-13T01:40:25;95359.13;;;4.88;50.85
55466;BME280;41329;41.594;23.810;2023-03-13T01:42:56;95355.84;;;4.74;50.45
55466;BME280;41329;41.594;23.810;2023-03-13T01:46:42;95371.22;;;4.87;50.49
55466;BME280;41329;41.594;23.810;2023-03-13T01:54:08;95379.97;;;4.81;50.61
55466;BME280;41329;41.594;23.810;2023-03-13T01:57:02;95380.66;;;4.78;51.16
55466;BME280;41329;41.594;23.810;2023-03-13T01:59:53;95369.72;;;4.69;51.26
55466;BME280;41329;41.594;23.810;2023-03-13T02:02:21;95383.13;;;4.71;51.37
55466;BME280;41329;41.594;23.810;2023-03-13T02:04:49;95390.41;;;4.67;51.09
55466;BME280;41329;41.594;23.810;2023-03-13T02:07:20;95385.78;;;4.59;51.14
55466;BME280;41329;41.594;23.810;2023-03-13T02:09:50;95376.00;;;4.49;51.54
55466;BME280;41329;41.594;23.810;2023-03-13T02:12:24;95369.78;;;4.40;51.90
55466;BME280;41329;41.594;23.810;2023-03-13T02:14:51;95374.13;;;4.41;51.83
55466;BME280;41329;41.594;23.810;2023-03-13T02:17:18;95385.22;;;4.45;52.03
55466;BME280;41329;41.594;23.810;2023-03-13T02:19:48;95382.50;;;4.45;52.07
55466;BME280;41329;41.594;23.810;2023-03-13T02:22:39;95385.88;;;4.42;52.61
55466;BME280;41329;41.594;23.810;2023-03-13T02:27:44;95391.53;;;4.45;52.63
55466;BME280;41329;41.594;23.810;2023-03-13T02:30:12;95391.84;;;4.44;52.77
55466;BME280;41329;41.594;23.810;2023-03-13T02:32:39;95401.19;;;4.43;52.42
55466;BME280;41329;41.594;23.810;2023-03-13T02:35:11;95397.03;;;4.37;52.18
55466;BME280;41329;41.594;23.810;2023-03-13T02:37:38;95389.22;;;4.27;52.04
55466;BME280;41329;41.594;23.810;2023-03-13T02:40:09;95392.59;;;4.24;52.46
55466;BME280;41329;41.594;23.810;2023-03-13T02:42:37;95417.34;;;4.36;52.51
55466;BME280;41329;41.594;23.810;2023-03-13T02:45:05;95402.22;;;4.30;52.75
55466;BME280;41329;41.594;23.810;2023-03-13T02:47:31;95398.41;;;4.22;52.81
55466;BME280;41329;41.594;23.810;2023-03-13T02:49:56;95425.41;;;4.32;52.89
55466;BME280;41329;41.594;23.810;2023-03-13T02:52:25;95435.75;;;4.27;52.74
55466;BME280;41329;41.594;23.810;2023-03-13T02:54:57;95425.47;;;4.15;52.16
55466;BME280;41329;41.594;23.810;2023-03-13T02:57:23;95444.44;;;4.29;52.50
55466;BME280;41329;41.594;23.810;2023-03-13T02:59:48;95452.34;;;4.30;52.34
55466;BME280;41329;41.594;23.810;2023-03-13T03:02:14;95456.41;;;4.24;52.62
55466;BME280;41329;41.594;23.810;2023-03-13T03:04:39;95444.06;;;4.01;53.21
55466;BME280;41329;41.594;23.810;2023-03-13T03:07:05;95450.19;;;3.98;53.31
55466;BME280;41329;41.594;23.810;2023-03-13T03:09:31;95460.50;;;4.01;53.49
55466;BME280;41329;41.594;23.810;2023-03-13T03:11:57;95459.22;;;3.99;53.64
55466;BME280;41329;41.594;23.810;2023-03-13T03:14:22;95470.97;;;3.99;53.67
55466;BME280;41329;41.594;23.810;2023-03-13T03:16:48;95466.63;;;3.98;53.29
55466;BME280;41329;41.594;23.810;2023-03-13T03:19:13;95471.00;;;3.91;53.62
55466;BME280;41329;41.594;23.810;2023-03-13T03:21:39;95482.44;;;3.93;53.81
55466;BME280;41329;41.594;23.810;2023-03-13T03:24:05;95484.03;;;3.94;54.11
55466;BME280;41329;41.594;23.810;2023-03-13T03:26:30;95471.50;;;3.84;53.68
55466;BME280;41329;41.594;23.810;2023-03-13T03:28:56;95497.06;;;3.97;53.49
55466;BME280;41329;41.594;23.810;2023-03-13T03:31:22;95490.28;;;3.94;53.30
55466;BME280;41329;41.594;23.810;2023-03-13T03:33:47;95501.41;;;3.98;53.25
55466;BME280;41329;41.594;23.810;2023-03-13T03:36:15;95503.97;;;3.94;52.82
55466;BME280;41329;41.594;23.810;2023-03-13T03:38:41;95506.13;;;3.89;52.85
55466;BME280;41329;41.594;23.810;2023-03-13T03:41:09;95513.50;;;3.88;53.07
55466;BME280;41329;41.594;23.810;2023-03-13T03:43:35;95519.16;;;3.83;53.10
55466;BME280;41329;41.594;23.810;2023-03-13T03:46:00;95512.56;;;3.67;53.02
55466;BME280;41329;41.594;23.810;2023-03-13T03:48:26;95526.09;;;3.55;53.18
55466;BME280;41329;41.594;23.810;2023-03-13T03:50:52;95530.44;;;3.56;54.02
55466;BME280;41329;41.594;23.810;2023-03-13T03:53:18;95533.19;;;3.48;54.16
55466;BME280;41329;41.594;23.810;2023-03-13T03:55:43;95512.28;;;3.35;54.35
55466;BME280;41329;41.594;23.810;2023-03-13T03:58:09;95519.84;;;3.29;54.65
55466;BME280;41329;41.594;23.810;2023-03-13T04:00:34;95542.84;;;3.37;54.57
55466;BME280;41329;41.594;23.810;2023-03-13T04:03:00;95543.16;;;3.35;54.65
55466;BME280;41329;41.594;23.810;2023-03-13T04:05:25;95548.47;;;3.32;54.59
55466;BME280;41329;41.594;23.810;2023-03-13T04:07:51;95555.84;;;3.31;54.63
55466;BME280;41329;41.594;23.810;2023-03-13T04:10:17;95556.50;;;3.37;54.73
55466;BME280;41329;41.594;23.810;2023-03-13T04:12:42;95560.38;;;3.36;54.89
55466;BME280;41329;41.594;23.810;2023-03-13T04:15:08;95568.25;;;3.37;54.53
55466;BME280;41329;41.594;23.810;2023-03-13T04:17:34;95571.78;;;3.38;54.29
55466;BME280;41329;41.594;23.810;2023-03-13T04:20:00;95569.88;;;3.38;54.96
55466;BME280;41329;41.594;23.810;2023-03-13T04:22:25;95564.88;;;3.32;55.28
55466;BME280;41329;41.594;23.810;2023-03-13T04:24:51;95575.34;;;3.38;55.37
55466;BME280;41329;41.594;23.810;2023-03-13T04:27:17;95581.63;;;3.39;55.12
55466;BME280;41329;41.594;23.810;2023-03-13T04:29:43;95582.09;;;3.41;55.32
55466;BME280;41329;41.594;23.810;2023-03-13T04:32:09;95575.34;;;3.38;55.41
55466;BME280;41329;41.594;23.810;2023-03-13T04:34:34;95581.78;;;3.42;55.34
55466;BME280;41329;41.594;23.810;2023-03-13T04:37:00;95577.44;;;3.41;55.01
55466;BME280;41329;41.594;23.810;2023-03-13T04:39:26;95585.81;;;3.36;54.77
55466;BME280;41329;41.594;23.810;2023-03-13T04:41:52;95580.31;;;3.28;54.58
55466;BME280;41329;41.594;23.810;2023-03-13T04:44:17;95598.16;;;3.34;54.90
55466;BME280;41329;41.594;23.810;2023-03-13T04:46:43;95606.84;;;3.27;55.15
55466;BME280;41329;41.594;23.810;2023-03-13T04:49:09;95600.53;;;3.10;54.99
55466;BME280;41329;41.594;23.810;2023-03-13T04:51:34;95595.34;;;3.00;55.39
55466;BME280;41329;41.594;23.810;2023-03-13T04:54:00;95575.25;;;2.87;55.78
55466;BME280;41329;41.594;23.810;2023-03-13T04:56:26;95599.69;;;2.92;56.05
55466;BME280;41329;41.594;23.810;2023-03-13T04:58:52;95608.00;;;2.79;56.60
55466;BME280;41329;41.594;23.810;2023-03-13T05:01:18;95583.06;;;2.72;56.97
55466;BME280;41329;41.594;23.810;2023-03-13T05:03:43;95613.97;;;2.89;56.91
55466;BME280;41329;41.594;23.810;2023-03-13T05:06:09;95615.16;;;2.97;57.08
55466;BME280;41329;41.594;23.810;2023-03-13T05:08:35;95611.28;;;2.98;56.78
55466;BME280;41329;41.594;23.810;2023-03-13T05:11:01;95613.50;;;2.96;57.03
55466;BME280;41329;41.594;23.810;2023-03-13T05:13:26;95607.25;;;2.95;56.86
55466;BME280;41329;41.594;23.810;2023-03-13T05:15:52;95615.00;;;3.10;56.89
55466;BME280;41329;41.594;23.810;2023-03-13T05:18:17;95610.19;;;3.07;56.98
55466;BME280;41329;41.594;23.810;2023-03-13T05:20:43;95632.88;;;3.25;57.02
55466;BME280;41329;41.594;23.810;2023-03-13T05:23:08;95626.78;;;3.28;56.70
55466;BME280;41329;41.594;23.810;2023-03-13T05:25:34;95619.72;;;3.27;56.93
55466;BME280;41329;41.594;23.810;2023-03-13T05:27:59;95642.25;;;3.41;56.81
55466;BME280;41329;41.594;23.810;2023-03-13T05:30:25;95626.31;;;3.34;57.00
55466;BME280;41329;41.594;23.810;2023-03-13T05:32:50;95655.66;;;3.51;56.69
55466;BME280;41329;41.594;23.810;2023-03-13T05:35:16;95641.28;;;3.37;56.73
55466;BME280;41329;41.594;23.810;2023-03-13T05:37:42;95653.34;;;3.36;57.19
55466;BME280;41329;41.594;23.810;2023-03-13T05:40:08;95657.19;;;3.18;57.26
55466;BME280;41329;41.594;23.810;2023-03-13T05:42:34;95660.69;;;3.10;57.39
55466;BME280;41329;41.594;23.810;2023-03-13T05:45:00;95662.53;;;2.84;58.00
55466;BME280;41329;41.594;23.810;2023-03-13T05:47:25;95649.44;;;2.72;58.20
55466;BME280;41329;41.594;23.810;2023-03-13T05:49:50;95669.75;;;2.58;59.21
55466;BME280;41329;41.594;23.810;2023-03-13T05:52:16;95642.56;;;2.44;59.46
55466;BME280;41329;41.594;23.810;2023-03-13T05:54:41;95669.69;;;2.71;59.53
55466;BME280;41329;41.594;23.810;2023-03-13T05:57:07;95677.94;;;2.80;59.72
55466;BME280;41329;41.594;23.810;2023-03-13T05:59:32;95658.28;;;2.69;59.59
55466;BME280;41329;41.594;23.810;2023-03-13T06:01:58;95671.97;;;2.78;59.64
55466;BME280;41329;41.594;23.810;2023-03-13T06:04:23;95676.34;;;2.87;59.99
55466;BME280;41329;41.594;23.810;2023-03-13T06:06:48;95678.16;;;3.00;60.04
55466;BME280;41329;41.594;23.810;2023-03-13T06:09:14;95684.31;;;3.14;60.46
55466;BME280;41329;41.594;23.810;2023-03-13T06:11:40;95661.34;;;3.15;60.38
55466;BME280;41329;41.594;23.810;2023-03-13T06:14:06;95683.75;;;3.34;60.10
55466;BME280;41329;41.594;23.810;2023-03-13T06:16:32;95686.53;;;3.51;60.35
55466;BME280;41329;41.594;23.810;2023-03-13T06:18:58;95666.13;;;3.57;59.85
55466;BME280;41329;41.594;23.810;2023-03-13T06:21:23;95677.19;;;3.44;60.18
55466;BME280;41329;41.594;23.810;2023-03-13T06:23:49;95664.63;;;3.43;59.97
55466;BME280;41329;41.594;23.810;2023-03-13T06:26:14;95681.09;;;3.77;59.97
55466;BME280;41329;41.594;23.810;2023-03-13T06:28:40;95685.31;;;3.91;59.54
55466;BME280;41329;41.594;23.810;2023-03-13T06:31:06;95684.81;;;3.89;59.24
55466;BME280;41329;41.594;23.810;2023-03-13T06:33:32;95700.94;;;4.08;59.21
55466;BME280;41329;41.594;23.810;2023-03-13T06:35:59;95691.28;;;4.19;58.55
55466;BME280;41329;41.594;23.810;2023-03-13T06:38:25;95686.44;;;4.16;57.77
55466;BME280;41329;41.594;23.810;2023-03-13T06:40:52;95696.56;;;4.24;57.85
55466;BME280;41329;41.594;23.810;2023-03-13T06:43:18;95693.50;;;4.17;57.70
55466;BME280;41329;41.594;23.810;2023-03-13T06:45:44;95675.31;;;4.12;57.93
55466;BME280;41329;41.594;23.810;2023-03-13T06:48:10;95687.72;;;4.18;57.31
55466;BME280;41329;41.594;23.810;2023-03-13T06:50:39;95689.31;;;4.36;57.57
55466;BME280;41329;41.594;23.810;2023-03-13T06:53:05;95690.25;;;4.57;57.79
55466;BME280;41329;41.594;23.810;2023-03-13T06:55:30;95689.59;;;4.69;57.53
55466;BME280;41329;41.594;23.810;2023-03-13T06:57:56;95676.00;;;4.81;56.84
55466;BME280;41329;41.594;23.810;2023-03-13T07:00:22;95677.59;;;4.90;56.28
55466;BME280;41329;41.594;23.810;2023-03-13T07:02:47;95692.13;;;5.28;55.92
55466;BME280;41329;41.594;23.810;2023-03-13T07:05:14;95686.53;;;5.45;55.89
55466;BME280;41329;41.594;23.810;2023-03-13T07:07:40;95685.34;;;5.63;54.84
55466;BME280;41329;41.594;23.810;2023-03-13T07:10:06;95689.34;;;5.66;54.37
55466;BME280;41329;41.594;23.810;2023-03-13T07:12:33;95679.91;;;5.84;54.47
55466;BME280;41329;41.594;23.810;2023-03-13T07:14:59;95657.41;;;5.90;54.25
55466;BME280;41329;41.594;23.810;2023-03-13T07:17:25;95673.16;;;6.22;53.83
55466;BME280;41329;41.594;23.810;2023-03-13T07:19:50;95682.41;;;6.38;52.56
55466;BME280;41329;41.594;23.810;2023-03-13T07:22:15;95671.44;;;6.50;51.60
55466;BME280;41329;41.594;23.810;2023-03-13T07:24:41;95672.75;;;6.65;50.96
55466;BME280;41329;41.594;23.810;2023-03-13T07:27:06;95659.59;;;6.71;51.91
55466;BME280;41329;41.594;23.810;2023-03-13T07:29:32;95674.56;;;6.94;50.42
55466;BME280;41329;41.594;23.810;2023-03-13T07:31:57;95668.97;;;7.02;50.06
55466;BME280;41329;41.594;23.810;2023-03-13T07:34:23;95663.69;;;6.97;49.84
55466;BME280;41329;41.594;23.810;2023-03-13T07:36:48;95674.72;;;7.09;50.01
55466;BME280;41329;41.594;23.810;2023-03-13T07:39:13;95665.31;;;7.22;49.30
55466;BME280;41329;41.594;23.810;2023-03-13T07:41:39;95680.72;;;7.35;49.40
55466;BME280;41329;41.594;23.810;2023-03-13T07:44:04;95658.00;;;7.26;48.75
55466;BME280;41329;41.594;23.810;2023-03-13T07:46:30;95671.88;;;7.54;49.18
55466;BME280;41329;41.594;23.810;2023-03-13T07:48:55;95669.72;;;7.71;49.16
55466;BME280;41329;41.594;23.810;2023-03-13T07:51:23;95674.63;;;7.90;49.16
55466;BME280;41329;41.594;23.810;2023-03-13T07:53:49;95675.28;;;8.11;48.17
55466;BME280;41329;41.594;23.810;2023-03-13T07:56:20;95665.03;;;8.11;47.04
55466;BME280;41329;41.594;23.810;2023-03-13T07:58:46;95676.59;;;8.41;48.04
55466;BME280;41329;41.594;23.810;2023-03-13T08:03:43;95669.94;;;8.69;47.05
55466;BME280;41329;41.594;23.810;2023-03-13T08:06:13;95647.63;;;8.74;47.20
55466;BME280;41329;41.594;23.810;2023-03-13T08:08:40;95672.97;;;9.07;45.97
55466;BME280;41329;41.594;23.810;2023-03-13T08:11:08;95668.06;;;9.16;46.07
55466;BME280;41329;41.594;23.810;2023-03-13T08:13:36;95661.31;;;9.14;45.49
55466;BME280;41329;41.594;23.810;2023-03-13T08:16:13;95638.97;;;9.19;45.15
55466;BME280;41329;41.594;23.810;2023-03-13T08:18:41;95648.59;;;9.40;42.38
55466;BME280;41329;41.594;23.810;2023-03-13T08:21:09;95641.97;;;9.45;42.13
55466;BME280;41329;41.594;23.810;2023-03-13T08:23:35;95651.34;;;9.56;42.42
55466;BME280;41329;41.594;23.810;2023-03-13T08:26:04;95641.63;;;9.62;40.16
55466;BME280;41329;41.594;23.810;2023-03-13T08:28:29;95634.41;;;9.57;41.50
55466;BME280;41329;41.594;23.810;2023-03-13T08:30:55;95634.59;;;9.49;41.84
55466;BME280;41329;41.594;23.810;2023-03-13T08:33:20;95607.84;;;9.68;43.15
55466;BME280;41329;41.594;23.810;2023-03-13T08:35:46;95626.16;;;9.92;39.92
55466;BME280;41329;41.594;23.810;2023-03-13T08:38:11;95626.75;;;9.66;40.37
55466;BME280;41329;41.594;23.810;2023-03-13T08:40:37;95606.88;;;9.61;39.56
55466;BME280;41329;41.594;23.810;2023-03-13T08:43:02;95619.88;;;9.76;39.75
55466;BME280;41329;41.594;23.810;2023-03-13T08:45:28;95592.41;;;9.67;39.14
55466;BME280;41329;41.594;23.810;2023-03-13T08:47:54;95625.03;;;9.77;40.24
55466;BME280;41329;41.594;23.810;2023-03-13T08:50:20;95610.81;;;9.94;40.65
55466;BME280;41329;41.594;23.810;2023-03-13T08:52:45;95618.81;;;10.15;39.61
55466;BME280;41329;41.594;23.810;2023-03-13T08:55:11;95607.91;;;10.22;39.89
55466;BME280;41329;41.594;23.810;2023-03-13T08:57:36;95618.63;;;10.23;38.68
55466;BME280;41329;41.594;23.810;2023-03-13T09:00:02;95619.72;;;10.38;38.95
55466;BME280;41329;41.594;23.810;2023-03-13T09:02:30;95613.31;;;10.34;37.42
55466;BME280;41329;41.594;23.810;2023-03-13T09:04:56;95607.41;;;10.54;38.28
55466;BME280;41329;41.594;23.810;2023-03-13T09:07:21;95599.56;;;10.56;37.01
55466;BME280;41329;41.594;23.810;2023-03-13T09:09:46;95606.06;;;10.86;38.74
55466;BME280;41329;41.594;23.810;2023-03-13T09:12:12;95599.91;;;10.96;37.30
55466;BME280;41329;41.594;23.810;2023-03-13T09:14:37;95598.94;;;11.08;37.16
55466;BME280;41329;41.594;23.810;2023-03-13T09:17:03;95607.41;;;10.96;36.93
55466;BME280;41329;41.594;23.810;2023-03-13T09:19:28;95588.03;;;10.96;38.07
55466;BME280;41329;41.594;23.810;2023-03-13T09:21:54;95600.56;;;11.09;36.90
55466;BME280;41329;41.594;23.810;2023-03-13T09:24:21;95591.44;;;11.08;36.12
55466;BME280;41329;41.594;23.810;2023-03-13T09:26:46;95581.41;;;11.23;36.65
55466;BME280;41329;41.594;23.810;2023-03-13T09:29:12;95585.63;;;11.39;37.16
55466;BME280;41329;41.594;23.810;2023-03-13T09:31:38;95590.63;;;11.30;35.38
55466;BME280;41329;41.594;23.810;2023-03-13T09:34:05;95588.19;;;11.25;34.78
55466;BME280;41329;41.594;23.810;2023-03-13T09:36:30;95578.28;;;11.24;35.29
55466;BME280;41329;41.594;23.810;2023-03-13T09:38:57;95584.31;;;11.30;34.31
55466;BME280;41329;41.594;23.810;2023-03-13T09:41:53;95554.56;;;11.27;35.37
55466;BME280;41329;41.594;23.810;2023-03-13T09:44:29;95579.75;;;11.63;35.32
55466;BME280;41329;41.594;23.810;2023-03-13T09:47:41;95566.44;;;11.76;34.28
55466;BME280;41329;41.594;23.810;2023-03-13T09:50:22;95567.75;;;12.11;36.26
55466;BME280;41329;41.594;23.810;2023-03-13T09:52:54;95568.72;;;12.22;32.58
55466;BME280;41329;41.594;23.810;2023-03-13T09:55:29;95559.28;;;12.27;33.97
55466;BME280;41329;41.594;23.810;2023-03-13T09:58:18;95552.94;;;12.30;34.42
55466;BME280;41329;41.594;23.810;2023-03-13T10:00:50;95555.34;;;12.65;35.04
55466;BME280;41329;41.594;23.810;2023-03-13T10:03:39;95563.06;;;12.78;32.39
55466;BME280;41329;41.594;23.810;2023-03-13T10:06:13;95554.19;;;12.66;32.79
55466;BME280;41329;41.594;23.810;2023-03-13T10:08:40;95542.16;;;12.88;33.11
55466;BME280;41329;41.594;23.810;2023-03-13T10:11:10;95542.44;;;13.16;34.99
55466;BME280;41329;41.594;23.810;2023-03-13T10:13:37;95537.03;;;13.30;31.89
55466;BME280;41329;41.594;23.810;2023-03-13T10:16:14;95529.59;;;13.01;31.59
55466;BME280;41329;41.594;23.810;2023-03-13T10:18:51;95533.06;;;13.31;33.60
55466;BME280;41329;41.594;23.810;2023-03-13T10:21:20;95512.41;;;13.32;31.59
55466;BME280;41329;41.594;23.810;2023-03-13T10:24:13;95521.47;;;13.22;31.41
55466;BME280;41329;41.594;23.810;2023-03-13T10:26:41;95506.88;;;13.35;31.30
55466;BME280;41329;41.594;23.810;2023-03-13T10:29:28;95513.97;;;13.26;31.26
55466;BME280;41329;41.594;23.810;2023-03-13T10:32:00;95515.28;;;13.42;31.55
55466;BME280;41329;41.594;23.810;2023-03-13T10:34:29;95514.16;;;13.54;31.99
55466;BME280;41329;41.594;23.810;2023-03-13T10:36:59;95515.88;;;13.69;30.37
55466;BME280;41329;41.594;23.810;2023-03-13T10:39:27;95505.50;;;13.62;30.24
55466;BME280;41329;41.594;23.810;2023-03-13T10:42:20;95499.81;;;13.48;30.63
55466;BME280;41329;41.594;23.810;2023-03-13T10:44:46;95488.53;;;13.27;30.78
55466;BME280;41329;41.594;23.810;2023-03-13T10:47:13;95467.31;;;13.05;31.66
55466;BME280;41329;41.594;23.810;2023-03-13T10:49:50;95490.78;;;13.58;32.18
55466;BME280;41329;41.594;23.810;2023-03-13T10:52:43;95478.19;;;13.78;30.70
55466;BME280;41329;41.594;23.810;2023-03-13T10:55:12;95477.00;;;13.79;31.16
55466;BME280;41329;41.594;23.810;2023-03-13T10:57:40;95472.13;;;13.62;30.59
55466;BME280;41329;41.594;23.810;2023-03-13T11:02:52;95423.22;;;13.54;30.17
55466;BME280;41329;41.594;23.810;2023-03-13T11:07:51;95454.25;;;13.63;29.92
55466;BME280;41329;41.594;23.810;2023-03-13T11:10:24;95459.19;;;13.94;32.70
55466;BME280;41329;41.594;23.810;2023-03-13T11:12:52;95446.19;;;14.12;30.73
55466;BME280;41329;41.594;23.810;2023-03-13T11:15:45;95443.84;;;14.21;30.93
55466;BME280;41329;41.594;23.810;2023-03-13T11:18:23;95440.38;;;14.49;31.42
55466;BME280;41329;41.594;23.810;2023-03-13T11:20:51;95420.47;;;14.54;29.47
55466;BME280;41329;41.594;23.810;2023-03-13T11:23:37;95427.69;;;14.69;29.08
55466;BME280;41329;41.594;23.810;2023-03-13T11:26:25;95416.13;;;14.49;28.76
55466;BME280;41329;41.594;23.810;2023-03-13T11:29:18;95420.47;;;14.40;29.66
55466;BME280;41329;41.594;23.810;2023-03-13T11:31:56;95387.31;;;14.10;29.46
55466;BME280;41329;41.594;23.810;2023-03-13T11:34:39;95414.06;;;14.32;29.92
55466;BME280;41329;41.594;23.810;2023-03-13T11:37:11;95399.34;;;14.35;29.46
55466;BME280;41329;41.594;23.810;2023-03-13T11:42:48;95387.88;;;14.61;28.77
55466;BME280;41329;41.594;23.810;2023-03-13T11:45:56;95394.25;;;14.69;27.51
55466;BME280;41329;41.594;23.810;2023-03-13T11:57:06;95354.44;;;15.14;26.67
55466;BME280;41329;41.594;23.810;2023-03-13T12:00:06;95372.34;;;15.27;27.54
55466;BME280;41329;41.594;23.810;2023-03-13T12:02:48;95370.38;;;15.34;26.73
55466;BME280;41329;41.594;23.810;2023-03-13T12:05:18;95359.63;;;15.29;27.67
55466;BME280;41329;41.594;23.810;2023-03-13T12:07:55;95346.06;;;15.21;27.28
55466;BME280;41329;41.594;23.810;2023-03-13T12:10:36;95353.63;;;15.27;27.74
55466;BME280;41329;41.594;23.810;2023-03-13T12:13:27;95330.50;;;15.51;27.84
55466;BME280;41329;41.594;23.810;2023-03-13T12:15:59;95339.16;;;15.81;26.75
55466;BME280;41329;41.594;23.810;2023-03-13T12:18:37;95324.47;;;15.74;26.97
55466;BME280;41329;41.594;23.810;2023-03-13T12:26:15;95320.88;;;15.66;26.60
55466;BME280;41329;41.594;23.810;2023-03-13T12:31:32;95333.50;;;15.95;25.77
55466;BME280;41329;41.594;23.810;2023-03-13T12:34:15;95321.53;;;15.98;26.05
55466;BME280;41329;41.594;23.810;2023-03-13T12:36:51;95314.25;;;16.18;26.17
55466;BME280;41329;41.594;23.810;2023-03-13T12:44:45;95309.06;;;16.78;24.26
55466;BME280;41329;41.594;23.810;2023-03-13T12:50:42;95302.66;;;16.81;24.47
55466;BME280;41329;41.594;23.810;2023-03-13T12:58:44;95301.66;;;17.05;24.11
55466;BME280;41329;41.594;23.810;2023-03-13T13:04:03;95295.22;;;17.49;24.46
55466;BME280;41329;41.594;23.810;2023-03-13T13:06:56;95297.56;;;17.54;23.19
55466;BME280;41329;41.594;23.810;2023-03-13T13:09:26;95286.66;;;17.26;23.64
55466;BME280;41329;41.594;23.810;2023-03-13T13:11:59;95289.34;;;17.36;25.03
55466;BME280;41329;41.594;23.810;2023-03-13T13:16:54;95283.91;;;17.59;24.50
55466;BME280;41329;41.594;23.810;2023-03-13T13:30:00;95279.31;;;17.76;22.71
55466;BME280;41329;41.594;23.810;2023-03-13T13:32:52;95284.50;;;18.08;23.57
55466;BME280;41329;41.594;23.810;2023-03-13T13:35:24;95280.28;;;18.23;22.59
55466;BME280;41329;41.594;23.810;2023-03-13T13:38:19;95270.94;;;18.33;24.26
55466;BME280;41329;41.594;23.810;2023-03-13T13:40:39;95269.69;;;18.64;24.25
55466;BME280;41329;41.594;23.810;2023-03-13T13:43:04;95257.78;;;18.79;23.47
55466;BME280;41329;41.594;23.810;2023-03-13T13:45:35;95267.25;;;18.89;21.96
55466;BME280;41329;41.594;23.810;2023-03-13T13:53:57;95265.72;;;18.35;21.79
55466;BME280;41329;41.594;23.810;2023-03-13T14:01:25;95270.56;;;18.34;22.38
55466;BME280;41329;41.594;23.810;2023-03-13T14:03:52;95271.00;;;18.56;24.48
55466;BME280;41329;41.594;23.810;2023-03-13T14:06:29;95270.50;;;18.61;21.07
55466;BME280;41329;41.594;23.810;2023-03-13T14:09:01;95267.09;;;18.50;20.86
55466;BME280;41329;41.594;23.810;2023-03-13T14:11:37;95244.06;;;18.39;21.58
55466;BME280;41329;41.594;23.810;2023-03-13T14:14:20;95265.63;;;18.42;21.43
55466;BME280;41329;41.594;23.810;2023-03-13T14:16:53;95261.97;;;18.45;21.21
55466;BME280;41329;41.594;23.810;2023-03-13T14:19:42;95252.34;;;18.46;21.86
55466;BME280;41329;41.594;23.810;2023-03-13T14:22:09;95249.16;;;18.70;22.27
55466;BME280;41329;41.594;23.810;2023-03-13T14:24:36;95259.75;;;18.82;21.88
55466;BME280;41329;41.594;23.810;2023-03-13T14:27:13;95257.88;;;18.76;20.61